createdAt,value
2023-03-11T00:00:13.763Z,13.27
2023-03-11T00:01:16.072Z,11.98
2023-03-11T00:02:19.366Z,12.68
2023-03-11T00:03:24.988Z,12.70
2023-03-11T00:04:27.307Z,12.05
2023-03-11T00:05:41.945Z,12.13
2023-03-11T00:06:44.219Z,11.95
2023-03-11T00:07:46.678Z,10.55
2023-03-11T00:08:48.958Z,12.20
2023-03-11T00:09:51.229Z,10.70
2023-03-11T00:11:00.286Z,11.38
2023-03-11T00:12:03.868Z,10.73
2023-03-11T00:13:08.345Z,8.63
2023-03-11T00:14:10.642Z,9.43
2023-03-11T00:15:14.220Z,8.82
2023-03-11T00:16:16.523Z,8.75
2023-03-11T00:17:18.764Z,8.80
2023-03-11T00:18:25.540Z,9.75
2023-03-11T00:19:27.944Z,8.57
2023-03-11T00:20:33.619Z,8.60
2023-03-11T00:21:36.092Z,9.02
2023-03-11T00:22:39.709Z,7.85
2023-03-11T00:23:42.107Z,7.78
2023-03-11T00:24:44.526Z,7.60
2023-03-11T00:25:47.797Z,7.70
2023-03-11T00:26:50.082Z,8.75
2023-03-11T00:27:52.737Z,8.50
2023-03-11T00:28:55.734Z,7.35
2023-03-11T00:29:57.984Z,7.47
2023-03-11T00:31:00.241Z,8.45
2023-03-11T00:32:03.474Z,6.93
2023-03-11T00:33:06.723Z,6.40
2023-03-11T00:34:09.048Z,6.45
2023-03-11T00:35:17.302Z,7.60
2023-03-11T00:36:31.717Z,7.25
2023-03-11T00:37:34.201Z,7.40
2023-03-11T00:38:36.604Z,8.43
2023-03-11T00:39:38.861Z,6.20
2023-03-11T00:40:41.464Z,6.60
2023-03-11T00:41:43.703Z,7.20
2023-03-11T00:42:46.428Z,7.88
2023-03-11T00:43:48.786Z,7.00
2023-03-11T00:44:51.035Z,7.25
2023-03-11T00:45:53.421Z,7.30
2023-03-11T00:46:55.744Z,7.90
2023-03-11T00:47:58.361Z,7.57
2023-03-11T00:49:00.632Z,7.97
2023-03-11T00:50:04.254Z,7.13
2023-03-11T00:51:08.203Z,7.20
2023-03-11T00:52:10.440Z,6.90
2023-03-11T00:53:12.784Z,7.25
2023-03-11T00:54:15.585Z,8.65
2023-03-11T00:55:27.146Z,8.15
2023-03-11T00:56:29.586Z,7.40
2023-03-11T00:57:31.912Z,8.27
2023-03-11T00:58:35.814Z,9.90
2023-03-11T00:59:38.516Z,7.70
2023-03-11T01:00:41.446Z,8.20
2023-03-11T01:01:43.875Z,9.52
2023-03-11T01:02:46.425Z,8.35
2023-03-11T01:03:48.782Z,8.40
2023-03-11T01:04:55.845Z,8.77
2023-03-11T01:05:58.113Z,8.25
2023-03-11T01:07:00.582Z,9.23
2023-03-11T01:08:04.529Z,8.80
2023-03-11T01:09:06.853Z,8.77
2023-03-11T01:10:10.545Z,8.77
2023-03-11T01:11:12.850Z,9.13
2023-03-11T01:12:15.112Z,9.00
2023-03-11T01:13:17.375Z,9.25
2023-03-11T01:14:19.775Z,10.15
2023-03-11T01:15:25.333Z,8.25
2023-03-11T01:16:27.625Z,8.90
2023-03-11T01:17:29.863Z,9.60
2023-03-11T01:18:32.193Z,9.15
2023-03-11T01:19:35.886Z,10.52
2023-03-11T01:20:38.773Z,8.25
2023-03-11T01:21:42.668Z,8.10
2023-03-11T01:22:45.733Z,8.45
2023-03-11T01:23:48.051Z,8.80
2023-03-11T01:24:50.410Z,7.60
2023-03-11T01:25:52.742Z,8.57
2023-03-11T01:26:55.084Z,8.05
2023-03-11T01:27:59.717Z,7.75
2023-03-11T01:29:02.045Z,7.53
2023-03-11T01:30:06.563Z,6.80
2023-03-11T01:31:10.502Z,6.65
2023-03-11T01:32:13.621Z,6.72
2023-03-11T01:33:18.455Z,6.93
2023-03-11T01:34:20.764Z,6.53
2023-03-11T01:35:25.137Z,5.63
2023-03-11T01:36:28.990Z,5.38
2023-03-11T01:37:31.305Z,5.88
2023-03-11T01:38:33.648Z,5.30
2023-03-11T01:39:35.921Z,5.47
2023-03-11T01:40:45.500Z,5.20
2023-03-11T01:41:49.050Z,4.90
2023-03-11T01:42:51.351Z,4.55
2023-03-11T01:43:54.989Z,4.25
2023-03-11T01:45:00.430Z,4.47
2023-03-11T01:46:11.165Z,3.53
2023-03-11T01:47:13.597Z,3.40
2023-03-11T01:48:16.014Z,4.03
2023-03-11T01:49:19.177Z,3.63
2023-03-11T01:50:22.568Z,3.70
2023-03-11T01:51:33.436Z,3.13
2023-03-11T01:52:36.087Z,2.60
2023-03-11T01:53:39.496Z,2.60
2023-03-11T01:54:41.991Z,2.55
2023-03-11T01:55:45.738Z,2.50
2023-03-11T01:56:50.771Z,2.60
2023-03-11T01:57:54.108Z,2.60
2023-03-11T01:58:57.134Z,2.50
2023-03-11T02:00:01.949Z,2.10
2023-03-11T02:01:14.836Z,2.38
2023-03-11T02:02:47.069Z,2.55
2023-03-11T02:03:49.947Z,1.80
2023-03-11T02:04:53.437Z,2.20
2023-03-11T02:06:02.627Z,2.30
2023-03-11T02:07:07.182Z,2.45
2023-03-11T02:08:09.521Z,1.85
2023-03-11T02:09:11.748Z,2.15
2023-03-11T02:10:14.915Z,2.72
2023-03-11T02:11:27.043Z,2.00
2023-03-11T02:12:34.121Z,1.75
2023-03-11T02:13:37.313Z,1.70
2023-03-11T02:14:45.416Z,1.90
2023-03-11T02:15:47.804Z,2.13
2023-03-11T02:16:50.120Z,2.05
2023-03-11T02:17:53.659Z,1.95
2023-03-11T02:19:00.310Z,2.28
2023-03-11T02:20:12.591Z,2.25
2023-03-11T02:21:26.916Z,2.35
2023-03-11T02:22:33.559Z,2.05
2023-03-11T02:24:03.460Z,2.25
2023-03-11T02:25:16.784Z,1.83
2023-03-11T02:26:26.290Z,1.60
2023-03-11T02:27:33.003Z,2.15
2023-03-11T02:28:37.774Z,1.80
2023-03-11T02:29:41.801Z,2.13
2023-03-11T02:30:44.922Z,2.22
2023-03-11T02:31:48.848Z,1.83
2023-03-11T02:32:54.794Z,1.70
2023-03-11T02:34:01.622Z,2.10
2023-03-11T02:35:05.720Z,2.30
2023-03-11T02:36:28.553Z,2.42
2023-03-11T02:37:32.063Z,2.60
2023-03-11T02:38:39.354Z,2.65
2023-03-11T02:39:50.706Z,2.53
2023-03-11T02:40:58.711Z,2.67
2023-03-11T02:42:10.894Z,2.55
2023-03-11T02:43:15.982Z,3.50
2023-03-11T02:44:18.492Z,2.53
2023-03-11T02:45:24.333Z,3.45
2023-03-11T02:46:27.025Z,3.72
2023-03-11T02:47:29.466Z,3.78
2023-03-11T02:48:32.232Z,4.32
2023-03-11T02:49:36.748Z,3.83
2023-03-11T02:50:41.289Z,4.38
2023-03-11T02:51:44.039Z,4.60
2023-03-11T02:52:49.415Z,4.22
2023-03-11T02:53:57.442Z,4.65
2023-03-11T02:54:59.893Z,4.50
2023-03-11T02:56:02.130Z,4.75
2023-03-11T02:57:04.896Z,4.75
2023-03-11T02:58:07.349Z,5.47
2023-03-11T02:59:10.037Z,5.20
2023-03-11T03:00:16.658Z,4.40
2023-03-11T03:01:26.421Z,4.70
2023-03-11T03:02:28.961Z,5.28
2023-03-11T03:03:31.424Z,5.65
2023-03-11T03:04:33.752Z,5.40
2023-03-11T03:05:36.296Z,5.60
2023-03-11T03:06:38.993Z,5.43
2023-03-11T03:07:41.234Z,6.00
2023-03-11T03:08:43.577Z,5.20
2023-03-11T03:09:46.036Z,5.72
2023-03-11T03:10:48.353Z,5.68
2023-03-11T03:11:50.763Z,4.35
2023-03-11T03:12:53.037Z,5.20
2023-03-11T03:13:55.368Z,5.43
2023-03-11T03:14:58.271Z,5.35
2023-03-11T03:16:00.881Z,5.00
2023-03-11T03:17:03.284Z,5.63
2023-03-11T03:18:05.676Z,4.75
2023-03-11T03:19:08.082Z,5.53
2023-03-11T03:20:13.044Z,4.65
2023-03-11T03:21:18.824Z,5.25
2023-03-11T03:22:21.241Z,5.05
2023-03-11T03:23:24.085Z,4.82
2023-03-11T03:24:26.442Z,5.55
2023-03-11T03:25:28.856Z,5.30
2023-03-11T03:26:33.141Z,5.55
2023-03-11T03:27:35.842Z,5.35
2023-03-11T03:28:38.502Z,5.22
2023-03-11T03:29:42.396Z,5.40
2023-03-11T03:30:44.730Z,5.88
2023-03-11T03:31:48.708Z,5.07
2023-03-11T03:32:51.291Z,5.45
2023-03-11T03:33:54.376Z,5.72
2023-03-11T03:34:59.097Z,5.25
2023-03-11T03:36:14.066Z,4.57
2023-03-11T03:37:19.640Z,5.00
2023-03-11T03:38:22.053Z,4.60
2023-03-11T03:39:26.348Z,5.00
2023-03-11T03:40:29.349Z,4.88
2023-03-11T03:41:33.688Z,4.70
2023-03-11T03:42:37.737Z,4.85
2023-03-11T03:43:40.989Z,4.78
2023-03-11T03:44:43.694Z,4.97
2023-03-11T03:45:46.073Z,4.78
2023-03-11T03:46:48.484Z,4.85
2023-03-11T03:47:50.966Z,4.90
2023-03-11T03:48:54.494Z,3.78
2023-03-11T03:49:56.753Z,4.60
2023-03-11T03:51:07.407Z,4.00
2023-03-11T03:52:10.775Z,3.72
2023-03-11T03:53:14.293Z,4.53
2023-03-11T03:54:17.009Z,4.72
2023-03-11T03:55:20.183Z,3.70
2023-03-11T03:56:22.538Z,4.10
2023-03-11T03:57:24.847Z,4.10
2023-03-11T03:58:27.172Z,3.90
2023-03-11T03:59:29.509Z,3.72
2023-03-11T04:00:34.497Z,4.10
2023-03-11T04:01:39.784Z,3.70
2023-03-11T04:02:42.369Z,3.72
2023-03-11T04:03:53.195Z,3.55
2023-03-11T04:04:56.750Z,3.40
2023-03-11T04:06:19.573Z,3.90
2023-03-11T04:07:24.633Z,3.90
2023-03-11T04:08:26.929Z,3.00
2023-03-11T04:09:29.440Z,3.25
2023-03-11T04:10:31.721Z,3.60
2023-03-11T04:11:34.389Z,3.05
2023-03-11T04:12:38.257Z,3.38
2023-03-11T04:13:44.711Z,3.67
2023-03-11T04:14:47.428Z,3.45
2023-03-11T04:15:49.801Z,3.33
2023-03-11T04:16:52.173Z,3.83
2023-03-11T04:17:54.588Z,3.50
2023-03-11T04:18:56.880Z,3.13
2023-03-11T04:19:59.204Z,3.35
2023-03-11T04:21:05.561Z,3.60
2023-03-11T04:22:07.866Z,3.78
2023-03-11T04:23:10.242Z,3.20
2023-03-11T04:24:12.482Z,3.28
2023-03-11T04:25:15.172Z,3.25
2023-03-11T04:26:17.809Z,2.83
2023-03-11T04:27:20.152Z,3.70
2023-03-11T04:28:22.859Z,3.75
2023-03-11T04:29:25.774Z,3.33
2023-03-11T04:30:29.390Z,3.30
2023-03-11T04:31:32.930Z,3.22
2023-03-11T04:32:38.414Z,3.80
2023-03-11T04:33:41.162Z,3.60
2023-03-11T04:34:45.547Z,4.10
2023-03-11T04:35:49.796Z,2.92
2023-03-11T04:36:54.655Z,2.90
2023-03-11T04:38:01.665Z,3.65
2023-03-11T04:39:04.144Z,3.00
2023-03-11T04:40:11.163Z,3.55
2023-03-11T04:41:13.633Z,3.67
2023-03-11T04:42:19.138Z,2.70
2023-03-11T04:43:21.533Z,3.10
2023-03-11T04:44:23.763Z,3.40
2023-03-11T04:45:26.401Z,3.15
2023-03-11T04:46:31.753Z,3.35
2023-03-11T04:47:35.562Z,3.60
2023-03-11T04:48:39.402Z,3.40
2023-03-11T04:49:42.736Z,2.53
2023-03-11T04:50:46.789Z,2.78
2023-03-11T04:51:50.486Z,2.95
2023-03-11T04:52:56.556Z,2.78
2023-03-11T04:53:59.206Z,3.03
2023-03-11T04:55:03.658Z,2.70
2023-03-11T04:56:07.765Z,3.10
2023-03-11T04:57:12.398Z,3.00
2023-03-11T04:58:17.878Z,3.00
2023-03-11T04:59:21.764Z,2.67
2023-03-11T05:00:26.260Z,3.40
2023-03-11T05:01:37.954Z,2.88
2023-03-11T05:02:43.760Z,2.45
2023-03-11T05:03:47.610Z,3.17
2023-03-11T05:04:49.946Z,2.90
2023-03-11T05:05:56.670Z,2.55
2023-03-11T05:06:59.204Z,3.08
2023-03-11T05:08:01.654Z,3.50
2023-03-11T05:09:05.844Z,3.10
2023-03-11T05:10:11.865Z,3.33
2023-03-11T05:11:14.740Z,3.00
2023-03-11T05:12:19.257Z,2.72
2023-03-11T05:13:25.447Z,2.60
2023-03-11T05:14:28.503Z,3.00
2023-03-11T05:15:32.901Z,3.28
2023-03-11T05:16:37.441Z,2.65
2023-03-11T05:17:41.106Z,2.63
2023-03-11T05:18:43.596Z,3.38
2023-03-11T05:19:48.883Z,3.30
2023-03-11T05:20:57.153Z,3.17
2023-03-11T05:22:06.272Z,2.95
2023-03-11T05:23:09.187Z,2.90
2023-03-11T05:24:12.596Z,3.10
2023-03-11T05:25:14.999Z,3.60
2023-03-11T05:26:17.286Z,3.22
2023-03-11T05:27:21.321Z,3.35
2023-03-11T05:28:27.929Z,3.30
2023-03-11T05:29:31.346Z,3.55
2023-03-11T05:30:34.392Z,3.95
2023-03-11T05:31:36.877Z,4.40
2023-03-11T05:32:39.215Z,4.05
2023-03-11T05:33:42.564Z,4.57
2023-03-11T05:34:48.203Z,4.90
2023-03-11T05:35:52.128Z,4.20
2023-03-11T05:36:55.668Z,5.05
2023-03-11T05:37:59.094Z,4.80
2023-03-11T05:39:04.201Z,5.18
2023-03-11T05:40:10.360Z,6.05
2023-03-11T05:41:13.559Z,4.25
2023-03-11T05:42:19.694Z,5.22
2023-03-11T05:43:24.759Z,5.05
2023-03-11T05:44:30.388Z,6.28
2023-03-11T05:45:32.707Z,5.57
2023-03-11T05:46:37.203Z,5.80
2023-03-11T05:47:42.459Z,6.47
2023-03-11T05:48:47.104Z,5.75
2023-03-11T05:49:49.792Z,6.32
2023-03-11T05:50:54.237Z,5.40
2023-03-11T05:51:58.736Z,5.65
2023-03-11T05:53:02.411Z,5.25
2023-03-11T05:54:14.895Z,6.10
2023-03-11T05:55:19.282Z,6.40
2023-03-11T05:56:23.142Z,5.90
2023-03-11T05:57:26.146Z,6.63
2023-03-11T05:58:32.418Z,6.70
2023-03-11T05:59:35.623Z,6.10
2023-03-11T06:00:40.354Z,6.70
2023-03-11T06:01:43.345Z,6.22
2023-03-11T06:02:46.712Z,6.80
2023-03-11T06:03:52.327Z,6.40
2023-03-11T06:04:54.838Z,7.32
2023-03-11T06:05:57.295Z,6.00
2023-03-11T06:06:59.631Z,6.93
2023-03-11T06:08:05.199Z,7.25
2023-03-11T06:09:12.291Z,6.30
2023-03-11T06:10:14.579Z,6.22
2023-03-11T06:11:17.773Z,7.43
2023-03-11T06:12:20.249Z,7.32
2023-03-11T06:13:35.439Z,6.95
2023-03-11T06:14:38.752Z,5.80
2023-03-11T06:15:41.503Z,6.47
2023-03-11T06:16:44.068Z,7.25
2023-03-11T06:17:47.199Z,7.38
2023-03-11T06:18:49.604Z,7.05
2023-03-11T06:19:52.149Z,6.97
2023-03-11T06:20:57.753Z,6.60
2023-03-11T06:22:00.242Z,6.82
2023-03-11T06:23:02.505Z,6.70
2023-03-11T06:24:05.242Z,6.90
2023-03-11T06:25:08.224Z,6.40
2023-03-11T06:26:14.508Z,6.82
2023-03-11T06:27:18.740Z,8.00
2023-03-11T06:28:21.205Z,6.90
2023-03-11T06:29:24.564Z,7.40
2023-03-11T06:30:27.261Z,6.82
2023-03-11T06:31:45.024Z,7.35
2023-03-11T06:32:48.619Z,7.60
2023-03-11T06:33:51.623Z,7.00
2023-03-11T06:34:54.335Z,6.20
2023-03-11T06:35:59.117Z,6.60
2023-03-11T06:37:01.601Z,7.28
2023-03-11T06:38:03.833Z,7.78
2023-03-11T06:39:06.310Z,7.85
2023-03-11T06:40:11.280Z,6.50
2023-03-11T06:41:13.862Z,6.30
2023-03-11T06:42:16.169Z,7.80
2023-03-11T06:43:19.889Z,7.40
2023-03-11T06:44:22.586Z,7.47
2023-03-11T06:45:25.263Z,6.80
2023-03-11T06:46:28.343Z,6.97
2023-03-11T06:47:31.934Z,6.95
2023-03-11T06:48:35.393Z,7.60
2023-03-11T06:49:40.878Z,8.70
2023-03-11T06:50:43.185Z,7.22
2023-03-11T06:51:45.775Z,6.95
2023-03-11T06:52:49.835Z,6.75
2023-03-11T06:53:53.295Z,6.57
2023-03-11T06:54:56.455Z,7.68
2023-03-11T06:56:02.421Z,7.07
2023-03-11T06:57:10.274Z,7.75
2023-03-11T06:58:13.314Z,7.05
2023-03-11T06:59:16.019Z,7.55
2023-03-11T07:00:18.966Z,7.10
2023-03-11T07:01:28.262Z,7.25
2023-03-11T07:02:32.287Z,6.63
2023-03-11T07:03:35.018Z,7.68
2023-03-11T07:04:37.254Z,7.38
2023-03-11T07:05:39.638Z,8.32
2023-03-11T07:06:45.261Z,6.82
2023-03-11T07:07:55.664Z,6.65
2023-03-11T07:08:59.472Z,7.13
2023-03-11T07:10:02.278Z,8.05
2023-03-11T07:11:14.680Z,7.07
2023-03-11T07:12:17.868Z,7.95
2023-03-11T07:13:20.124Z,7.00
2023-03-11T07:14:23.128Z,6.90
2023-03-11T07:15:29.248Z,6.95
2023-03-11T07:16:31.745Z,7.25
2023-03-11T07:17:41.088Z,7.35
2023-03-11T07:18:45.289Z,7.07
2023-03-11T07:19:47.611Z,7.18
2023-03-11T07:20:49.818Z,7.43
2023-03-11T07:21:52.071Z,6.78
2023-03-11T07:22:54.385Z,6.43
2023-03-11T07:23:59.656Z,6.25
2023-03-11T07:25:01.937Z,6.78
2023-03-11T07:26:04.991Z,7.78
2023-03-11T07:27:07.393Z,6.93
2023-03-11T07:28:09.636Z,7.20
2023-03-11T07:29:11.949Z,8.32
2023-03-11T07:30:14.748Z,6.75
2023-03-11T07:31:19.860Z,6.80
2023-03-11T07:32:22.360Z,7.43
2023-03-11T07:33:24.910Z,6.80
2023-03-11T07:34:27.262Z,8.18
2023-03-11T07:35:29.492Z,7.60
2023-03-11T07:36:32.612Z,7.70
2023-03-11T07:37:34.974Z,6.93
2023-03-11T07:38:37.661Z,5.80
2023-03-11T07:39:40.060Z,7.38
2023-03-11T07:40:42.564Z,7.50
2023-03-11T07:41:45.353Z,8.00
2023-03-11T07:42:47.679Z,7.78
2023-03-11T07:43:50.166Z,7.10
2023-03-11T07:44:52.464Z,7.70
2023-03-11T07:46:13.208Z,7.53
2023-03-11T07:47:15.488Z,7.00
2023-03-11T07:48:18.337Z,7.03
2023-03-11T07:49:20.613Z,8.05
2023-03-11T07:50:22.883Z,7.55
2023-03-11T07:51:28.461Z,7.40
2023-03-11T07:52:32.438Z,8.20
2023-03-11T07:53:35.169Z,6.70
2023-03-11T07:54:37.513Z,7.85
2023-03-11T07:55:39.760Z,7.47
2023-03-11T07:56:42.081Z,7.65
2023-03-11T07:57:46.638Z,9.27
2023-03-11T07:58:48.990Z,7.35
2023-03-11T07:59:51.388Z,7.72
2023-03-11T08:00:55.404Z,7.38
2023-03-11T08:01:57.945Z,8.05
2023-03-11T08:03:00.207Z,7.13
2023-03-11T08:04:05.507Z,6.97
2023-03-11T08:05:08.048Z,7.93
2023-03-11T08:06:17.910Z,6.43
2023-03-11T08:07:20.822Z,7.97
2023-03-11T08:08:23.135Z,6.63
2023-03-11T08:09:25.510Z,7.88
2023-03-11T08:10:27.778Z,7.18
2023-03-11T08:11:31.303Z,7.57
2023-03-11T08:12:33.589Z,7.00
2023-03-11T08:13:36.120Z,7.32
2023-03-11T08:14:39.683Z,6.82
2023-03-11T08:15:42.098Z,7.13
2023-03-11T08:16:44.352Z,6.45
2023-03-11T08:17:46.705Z,7.10
2023-03-11T08:18:50.697Z,7.15
2023-03-11T08:19:53.062Z,8.05
2023-03-11T08:20:55.623Z,7.50
2023-03-11T08:21:57.949Z,7.78
2023-03-11T08:23:00.294Z,7.47
2023-03-11T08:24:04.528Z,7.40
2023-03-11T08:25:08.695Z,6.97
2023-03-11T08:26:13.351Z,6.50
2023-03-11T08:27:15.642Z,7.53
2023-03-11T08:28:17.980Z,7.43
2023-03-11T08:29:20.216Z,7.70
2023-03-11T08:30:23.025Z,8.02
2023-03-11T08:31:29.192Z,7.07
2023-03-11T08:32:31.736Z,7.53
2023-03-11T08:33:34.122Z,8.07
2023-03-11T08:34:38.145Z,7.30
2023-03-11T08:35:40.584Z,7.85
2023-03-11T08:36:43.294Z,7.18
2023-03-11T08:37:45.554Z,7.10
2023-03-11T08:38:48.300Z,7.18
2023-03-11T08:39:50.722Z,7.18
2023-03-11T08:40:52.966Z,7.57
2023-03-11T08:41:55.253Z,7.85
2023-03-11T08:42:57.464Z,7.40
2023-03-11T08:44:00.040Z,7.50
2023-03-11T08:45:02.603Z,8.15
2023-03-11T08:46:09.099Z,6.95
2023-03-11T08:47:11.588Z,7.78
2023-03-11T08:48:13.961Z,7.70
2023-03-11T08:49:16.214Z,7.50
2023-03-11T08:50:19.966Z,6.47
2023-03-11T08:51:23.597Z,7.45
2023-03-11T08:52:25.838Z,6.32
2023-03-11T08:53:28.130Z,7.63
2023-03-11T08:54:30.867Z,7.60
2023-03-11T08:55:33.145Z,7.10
2023-03-11T08:56:35.490Z,8.32
2023-03-11T08:57:38.511Z,7.53
2023-03-11T08:58:40.814Z,8.00
2023-03-11T08:59:43.091Z,7.72
2023-03-11T09:00:46.253Z,8.00
2023-03-11T09:01:48.493Z,6.65
2023-03-11T09:02:50.810Z,8.02
2023-03-11T09:03:54.316Z,7.45
2023-03-11T09:04:56.637Z,7.20
2023-03-11T09:06:00.483Z,8.85
2023-03-11T09:07:03.012Z,7.47
2023-03-11T09:08:06.004Z,7.95
2023-03-11T09:09:09.721Z,7.50
2023-03-11T09:10:14.958Z,6.97
2023-03-11T09:11:18.806Z,7.60
2023-03-11T09:12:21.376Z,7.07
2023-03-11T09:13:23.884Z,8.75
2023-03-11T09:14:26.190Z,8.15
2023-03-11T09:15:28.729Z,10.20
2023-03-11T09:16:31.179Z,8.48
2023-03-11T09:17:33.625Z,9.43
2023-03-11T09:18:36.030Z,7.93
2023-03-11T09:19:38.727Z,8.45
2023-03-11T09:20:42.160Z,8.90
2023-03-11T09:21:45.348Z,9.80
2023-03-11T09:22:48.018Z,10.07
2023-03-11T09:23:50.304Z,8.73
2023-03-11T09:24:52.521Z,10.57
2023-03-11T09:25:54.819Z,8.80
2023-03-11T09:26:57.134Z,10.65
2023-03-11T09:27:59.375Z,11.65
2023-03-11T09:29:01.690Z,9.45
2023-03-11T09:30:04.480Z,9.98
2023-03-11T09:31:07.065Z,8.38
2023-03-11T09:32:12.925Z,8.80
2023-03-11T09:33:15.248Z,8.77
2023-03-11T09:34:17.484Z,8.15
2023-03-11T09:35:19.812Z,9.80
2023-03-11T09:36:23.095Z,10.43
2023-03-11T09:37:25.365Z,9.52
2023-03-11T09:38:27.702Z,9.25
2023-03-11T09:39:29.934Z,8.95
2023-03-11T09:40:53.511Z,8.77
2023-03-11T09:42:03.602Z,9.73
2023-03-11T09:43:45.535Z,9.82
2023-03-11T09:45:16.808Z,8.77
2023-03-11T09:46:54.608Z,10.13
2023-03-11T09:48:31.636Z,9.90
2023-03-11T09:49:55.587Z,9.50
2023-03-11T09:51:09.046Z,10.57
2023-03-11T09:52:29.562Z,10.35
2023-03-11T09:53:44.375Z,9.57
2023-03-11T09:54:51.370Z,9.98
2023-03-11T09:56:01.079Z,10.35
2023-03-11T09:57:04.341Z,11.32
2023-03-11T09:58:19.042Z,9.90
2023-03-11T09:59:31.036Z,10.30
2023-03-11T10:00:33.818Z,9.23
2023-03-11T10:01:46.794Z,10.40
2023-03-11T10:02:50.247Z,9.02
2023-03-11T10:03:56.100Z,10.57
2023-03-11T10:05:13.980Z,11.40
2023-03-11T10:06:25.089Z,9.85
2023-03-11T10:07:40.489Z,8.85
2023-03-11T10:09:19.987Z,10.15
2023-03-11T10:10:22.846Z,9.38
2023-03-11T10:11:56.671Z,8.40
2023-03-11T10:13:17.459Z,9.60
2023-03-11T10:14:37.892Z,10.05
2023-03-11T10:16:03.888Z,9.70
2023-03-11T10:17:23.958Z,10.07
2023-03-11T10:18:49.204Z,9.23
2023-03-11T10:20:13.039Z,9.45
2023-03-11T10:21:38.460Z,9.43
2023-03-11T10:23:00.224Z,10.23
2023-03-11T10:24:15.505Z,10.75
2023-03-11T10:25:51.255Z,8.93
2023-03-11T10:26:59.736Z,8.52
2023-03-11T10:28:14.298Z,9.95
2023-03-11T10:29:39.238Z,9.02
2023-03-11T10:30:47.934Z,9.52
2023-03-11T10:32:13.534Z,9.25
2023-03-11T10:33:30.513Z,9.75
2023-03-11T10:35:04.211Z,9.88
2023-03-11T10:36:11.708Z,9.40
2023-03-11T10:37:28.983Z,10.00
2023-03-11T10:38:42.385Z,9.73
2023-03-11T10:39:47.507Z,10.05
2023-03-11T10:40:55.158Z,10.77
2023-03-11T10:42:05.788Z,10.77
2023-03-11T10:43:21.124Z,10.55
2023-03-11T10:44:32.735Z,10.27
2023-03-11T10:45:41.480Z,10.05
2023-03-11T10:46:43.893Z,9.88
2023-03-11T10:47:46.188Z,10.18
2023-03-11T10:48:48.542Z,9.60
2023-03-11T10:49:52.610Z,10.25
2023-03-11T10:51:03.881Z,9.90
2023-03-11T10:52:06.459Z,9.55
2023-03-11T10:53:13.217Z,8.13
2023-03-11T10:54:33.523Z,8.43
2023-03-11T10:55:45.566Z,9.35
2023-03-11T10:56:54.065Z,9.25
2023-03-11T10:58:11.849Z,10.23
2023-03-11T10:59:24.844Z,9.52
2023-03-11T11:00:31.956Z,10.70
2023-03-11T11:01:34.652Z,8.25
2023-03-11T11:02:49.687Z,8.77
2023-03-11T11:03:55.921Z,9.80
2023-03-11T11:05:20.081Z,9.60
2023-03-11T11:06:29.728Z,9.32
2023-03-11T11:07:35.349Z,8.60
2023-03-11T11:08:37.785Z,9.63
2023-03-11T11:09:40.038Z,8.85
2023-03-11T11:10:57.694Z,9.52
2023-03-11T11:12:05.461Z,9.70
2023-03-11T11:13:13.851Z,9.93
2023-03-11T11:14:16.065Z,8.60
2023-03-11T11:15:28.172Z,9.05
2023-03-11T11:16:32.132Z,8.48
2023-03-11T11:17:34.781Z,9.70
2023-03-11T11:19:00.288Z,8.55
2023-03-11T11:20:13.123Z,9.00
2023-03-11T11:21:37.323Z,9.45
2023-03-11T11:22:58.097Z,8.18
2023-03-11T11:24:27.165Z,8.57
2023-03-11T11:25:41.880Z,8.43
2023-03-11T11:27:11.874Z,8.18
2023-03-11T11:28:20.936Z,8.77
2023-03-11T11:29:23.188Z,9.27
2023-03-11T11:30:26.911Z,8.18
2023-03-11T11:31:29.150Z,8.07
2023-03-11T11:32:31.441Z,8.55
2023-03-11T11:33:40.402Z,8.52
2023-03-11T11:34:47.313Z,7.82
2023-03-11T11:35:56.125Z,9.82
2023-03-11T11:37:04.360Z,9.05
2023-03-11T11:38:10.400Z,8.50
2023-03-11T11:39:20.186Z,8.80
2023-03-11T11:40:26.704Z,8.60
2023-03-11T11:41:31.942Z,8.65
2023-03-11T11:42:34.609Z,7.70
2023-03-11T11:43:52.328Z,9.15
2023-03-11T11:45:04.656Z,8.75
2023-03-11T11:46:27.102Z,8.80
2023-03-11T11:47:41.918Z,8.30
2023-03-11T11:49:07.371Z,8.90
2023-03-11T11:50:26.629Z,8.27
2023-03-11T11:51:41.018Z,8.32
2023-03-11T11:52:51.475Z,7.93
2023-03-11T11:54:02.562Z,8.02
2023-03-11T11:55:26.871Z,7.47
2023-03-11T11:56:29.612Z,7.85
2023-03-11T11:57:32.432Z,7.90
2023-03-11T11:58:35.543Z,8.25
2023-03-11T11:59:37.997Z,7.75
2023-03-11T12:00:54.509Z,8.20
2023-03-11T12:02:25.206Z,10.00
2023-03-11T12:03:53.409Z,9.07
2023-03-11T12:05:30.897Z,7.80
2023-03-11T12:06:49.324Z,10.15
2023-03-11T12:08:06.738Z,9.15
2023-03-11T12:09:27.139Z,9.07
2023-03-11T12:10:29.388Z,8.30
2023-03-11T12:11:43.964Z,8.60
2023-03-11T12:13:24.202Z,8.88
2023-03-11T12:15:11.393Z,8.73
2023-03-11T12:16:45.102Z,8.88
2023-03-11T12:17:50.473Z,10.50
2023-03-11T12:19:03.997Z,9.52
2023-03-11T12:20:14.489Z,11.23
2023-03-11T12:21:41.114Z,8.50
2023-03-11T12:23:17.372Z,8.38
2023-03-11T12:24:25.333Z,9.48
2023-03-11T12:25:39.994Z,8.27
2023-03-11T12:26:45.308Z,8.30
2023-03-11T12:28:16.099Z,8.52
2023-03-11T12:29:33.841Z,8.20
2023-03-11T12:30:48.801Z,8.20
2023-03-11T12:31:51.761Z,9.15
2023-03-11T12:33:02.799Z,8.63
2023-03-11T12:34:08.096Z,9.20
2023-03-11T12:35:27.819Z,8.13
2023-03-11T12:36:34.603Z,7.68
2023-03-11T12:37:37.407Z,7.60
2023-03-11T12:38:45.428Z,8.15
2023-03-11T12:39:47.702Z,8.80
2023-03-11T12:41:07.846Z,8.25
2023-03-11T12:42:25.117Z,8.48
2023-03-11T12:43:33.917Z,8.75
2023-03-11T12:44:37.066Z,8.75
2023-03-11T12:45:50.988Z,9.00
2023-03-11T12:46:59.000Z,8.38
2023-03-11T12:48:25.601Z,9.40
2023-03-11T12:49:30.670Z,9.55
2023-03-11T12:50:43.714Z,10.40
2023-03-11T12:52:13.858Z,9.35
2023-03-11T12:53:18.805Z,8.75
2023-03-11T12:54:21.086Z,8.13
2023-03-11T12:55:29.212Z,9.48
2023-03-11T12:56:39.695Z,9.07
2023-03-11T12:58:00.041Z,8.77
2023-03-11T12:59:14.346Z,9.95
2023-03-11T13:00:32.799Z,14.55
2023-03-11T13:01:40.644Z,10.35
2023-03-11T13:03:06.500Z,9.88
2023-03-11T13:04:27.292Z,8.45
2023-03-11T13:05:54.188Z,9.10
2023-03-11T13:07:13.124Z,8.00
2023-03-11T13:08:23.754Z,10.18
2023-03-11T13:09:26.431Z,9.90
2023-03-11T13:10:48.349Z,11.75
2023-03-11T13:11:51.366Z,14.02
2023-03-11T13:12:53.691Z,11.90
2023-03-11T13:14:12.050Z,10.05
2023-03-11T13:15:20.506Z,9.10
2023-03-11T13:16:22.873Z,8.52
2023-03-11T13:17:28.067Z,8.55
2023-03-11T13:18:32.851Z,7.95
2023-03-11T13:19:37.520Z,8.20
2023-03-11T13:20:42.499Z,8.30
2023-03-11T13:21:44.928Z,8.73
2023-03-11T13:22:53.107Z,10.25
2023-03-11T13:24:21.469Z,8.70
2023-03-11T13:25:35.471Z,8.98
2023-03-11T13:26:50.425Z,8.50
2023-03-11T13:28:00.948Z,8.93
2023-03-11T13:29:29.265Z,7.47
2023-03-11T13:30:38.924Z,9.20
2023-03-11T13:31:58.693Z,9.48
2023-03-11T13:33:45.655Z,8.10
2023-03-11T13:34:55.390Z,7.70
2023-03-11T13:36:07.342Z,9.43
2023-03-11T13:37:14.754Z,8.90
2023-03-11T13:38:41.160Z,8.93
2023-03-11T13:39:55.094Z,7.22
2023-03-11T13:40:58.250Z,8.57
2023-03-11T13:42:00.720Z,9.00
2023-03-11T13:43:08.630Z,8.35
2023-03-11T13:44:19.497Z,8.18
2023-03-11T13:45:29.618Z,7.80
2023-03-11T13:46:40.854Z,8.57
2023-03-11T13:47:49.603Z,7.88
2023-03-11T13:49:00.170Z,8.55
2023-03-11T13:50:31.078Z,8.23
2023-03-11T13:51:40.226Z,6.88
2023-03-11T13:52:48.331Z,6.60
2023-03-11T13:53:58.892Z,8.77
2023-03-11T13:55:08.907Z,7.38
2023-03-11T13:56:40.031Z,6.82
2023-03-11T13:57:51.596Z,7.97
2023-03-11T13:58:54.134Z,7.88
2023-03-11T13:59:57.874Z,7.53
2023-03-11T14:01:01.969Z,7.20
2023-03-11T14:02:16.932Z,6.20
2023-03-11T14:03:22.264Z,7.05
2023-03-11T14:04:31.977Z,7.40
2023-03-11T14:05:36.167Z,7.55
2023-03-11T14:06:38.836Z,7.35
2023-03-11T14:07:41.074Z,7.88
2023-03-11T14:08:43.594Z,7.35
2023-03-11T14:09:45.945Z,7.20
2023-03-11T14:10:57.369Z,6.88
2023-03-11T14:12:07.893Z,6.80
2023-03-11T14:13:18.432Z,7.95
2023-03-11T14:14:48.984Z,7.55
2023-03-11T14:16:03.286Z,7.22
2023-03-11T14:17:13.075Z,8.05
2023-03-11T14:18:33.975Z,7.38
2023-03-11T14:19:36.872Z,7.03
2023-03-11T14:20:39.180Z,7.50
2023-03-11T14:21:59.236Z,7.25
2023-03-11T14:23:01.587Z,7.80
2023-03-11T14:24:04.152Z,8.02
2023-03-11T14:25:14.883Z,8.07
2023-03-11T14:26:27.748Z,7.10
2023-03-11T14:27:33.103Z,7.63
2023-03-11T14:28:38.893Z,7.68
2023-03-11T14:29:45.348Z,7.03
2023-03-11T14:31:01.819Z,7.85
2023-03-11T14:32:37.574Z,7.60
2023-03-11T14:33:39.880Z,6.25
2023-03-11T14:34:42.150Z,7.43
2023-03-11T14:35:53.693Z,7.93
2023-03-11T14:37:01.196Z,6.82
2023-03-11T14:38:20.013Z,7.35
2023-03-11T14:39:26.378Z,6.30
2023-03-11T14:40:30.297Z,7.78
2023-03-11T14:41:32.671Z,6.75
2023-03-11T14:42:38.363Z,7.10
2023-03-11T14:43:44.279Z,7.25
2023-03-11T14:45:01.894Z,7.40
2023-03-11T14:46:06.060Z,7.45
2023-03-11T14:47:26.783Z,7.28
2023-03-11T14:48:35.339Z,8.02